Time;durP1;ratioP1;P1;durP2;ratioP2;P2;SDS_P1;SDS_P2;PMS_P1;PMS_P2;Temp;Humidity;BMP_temperature;BMP_pressure;BME280_temperature;BME280_humidity;BME280_pressure;Samples;Min_cycle;Max_cycle;Signal;HPM_P1;HPM_P2
2021/06/30 00:01:00;;;;;;;1.33;0.70;;;16.20;99.90;;;;;;4955139;28;20078;-81
2021/06/30 00:03:26;;;;;;;1.95;0.80;;;16.10;99.90;;;;;;4954803;28;20054;-81
2021/06/30 00:05:52;;;;;;;2.40;0.70;;;16.10;99.90;;;;;;4956729;28;20027;-82
2021/06/30 00:08:18;;;;;;;3.08;0.88;;;16.10;99.90;;;;;;4956164;28;20577;-81
2021/06/30 00:10:43;;;;;;;1.92;0.98;;;16.10;99.90;;;;;;4956108;28;20438;-81
2021/06/30 00:13:10;;;;;;;1.63;0.80;;;16.00;99.90;;;;;;4975650;28;20114;-81
2021/06/30 00:15:37;;;;;;;2.88;0.88;;;16.10;99.90;;;;;;4971627;28;20510;-80
2021/06/30 00:18:04;;;;;;;3.40;0.95;;;16.00;99.90;;;;;;4956303;28;20102;-81
2021/06/30 00:20:30;;;;;;;3.00;1.08;;;16.10;99.90;;;;;;4956853;28;20028;-80
2021/06/30 00:22:55;;;;;;;2.28;1.00;;;16.10;99.90;;;;;;4958524;28;20037;-80
2021/06/30 00:25:21;;;;;;;4.60;0.88;;;16.20;99.90;;;;;;4962746;28;20110;-79
2021/06/30 00:27:48;;;;;;;1.33;0.63;;;16.20;99.90;;;;;;4959279;28;20026;-80
2021/06/30 00:30:15;;;;;;;2.30;0.60;;;16.30;99.90;;;;;;4959396;28;20029;-81
2021/06/30 00:32:41;;;;;;;6.35;0.73;;;16.30;99.90;;;;;;4959718;28;20402;-81
2021/06/30 00:35:08;;;;;;;1.77;0.55;;;16.30;99.90;;;;;;4959908;28;20035;-81
2021/06/30 00:37:34;;;;;;;2.38;0.60;;;16.30;99.90;;;;;;4957416;28;20061;-79
2021/06/30 00:39:59;;;;;;;3.33;0.70;;;16.30;99.90;;;;;;4959018;28;20390;-78
2021/06/30 00:42:31;;;;;;;2.70;0.43;;;16.30;99.90;;;;;;4959852;28;20513;-81
2021/06/30 00:44:56;;;;;;;;;;;16.10;99.90;;;;;;4959992;28;20489;-81
2021/06/30 00:47:22;;;;;;;1.35;0.60;;;16.00;99.90;;;;;;4960274;28;19966;-81
2021/06/30 00:49:51;;;;;;;2.50;0.65;;;15.80;99.90;;;;;;4959190;28;20075;-80
2021/06/30 00:52:16;;;;;;;1.70;1.15;;;15.70;99.90;;;;;;4959514;28;20437;-80
2021/06/30 00:54:42;;;;;;;0.93;0.50;;;15.70;99.90;;;;;;4959774;28;20035;-80
2021/06/30 00:57:09;;;;;;;2.08;0.50;;;15.70;99.90;;;;;;4960002;28;20028;-80
2021/06/30 00:59:38;;;;;;;3.13;0.55;;;15.60;99.90;;;;;;4959218;28;20521;-81
2021/06/30 01:02:04;;;;;;;1.90;0.50;;;15.60;99.90;;;;;;4959782;28;20074;-81
2021/06/30 01:04:30;;;;;;;1.65;0.50;;;15.50;99.90;;;;;;4958832;28;20673;-81
2021/06/30 01:06:56;;;;;;;1.00;0.38;;;15.50;99.90;;;;;;4958162;28;20025;-81
2021/06/30 01:09:21;;;;;;;2.92;0.50;;;15.50;99.90;;;;;;4959725;28;20055;-80
2021/06/30 01:11:47;;;;;;;1.58;0.43;;;15.50;99.90;;;;;;4968392;28;20023;-81
2021/06/30 01:14:31;;;;;;;2.00;0.80;;;15.40;99.90;;;;;;4966737;28;20588;-81
2021/06/30 01:16:58;;;;;;;2.70;0.40;;;15.40;99.90;;;;;;4958634;28;20371;-80
2021/06/30 01:19:26;;;;;;;2.00;0.50;;;15.40;99.90;;;;;;4975643;28;20106;-81
2021/06/30 01:21:52;;;;;;;1.83;0.40;;;15.40;99.90;;;;;;4978097;28;20026;-80
2021/06/30 01:24:18;;;;;;;2.53;0.55;;;15.40;99.90;;;;;;4977762;28;20023;-80
2021/06/30 01:26:45;;;;;;;1.52;0.70;;;15.40;99.90;;;;;;4974758;28;20122;-81
2021/06/30 01:29:11;;;;;;;1.10;0.40;;;15.40;99.90;;;;;;4958760;28;20038;-81
2021/06/30 01:31:36;;;;;;;0.60;0.30;;;15.30;99.90;;;;;;4958500;28;20023;-81
2021/06/30 01:34:03;;;;;;;1.05;0.40;;;15.40;99.90;;;;;;4957767;28;20019;-81
2021/06/30 01:36:28;;;;;;;2.13;0.40;;;15.30;99.90;;;;;;4968112;28;20023;-79
2021/06/30 01:38:54;;;;;;;3.65;0.50;;;15.30;99.90;;;;;;4958662;28;20042;-80
2021/06/30 01:41:20;;;;;;;4.10;0.50;;;15.30;99.90;;;;;;4958800;28;20026;-81
2021/06/30 01:43:46;;;;;;;3.08;0.40;;;15.20;99.90;;;;;;4959024;28;20106;-81
2021/06/30 01:46:11;;;;;;;2.42;0.38;;;15.20;99.90;;;;;;4959986;28;20015;-80
2021/06/30 01:48:37;;;;;;;1.08;0.28;;;15.20;99.90;;;;;;4958772;28;20038;-80
2021/06/30 01:51:03;;;;;;;1.75;0.35;;;15.00;99.90;;;;;;4973253;28;20030;-81
2021/06/30 01:53:28;;;;;;;0.80;0.30;;;15.00;99.90;;;;;;4971181;28;20480;-82
2021/06/30 01:55:54;;;;;;;0.57;0.22;;;15.00;99.90;;;;;;4967844;28;20110;-81
2021/06/30 01:58:23;;;;;;;0.80;0.30;;;14.90;99.90;;;;;;4956903;28;20058;-83
2021/06/30 02:00:50;;;;;;;0.57;0.20;;;14.90;99.90;;;;;;4959126;28;20085;-83
2021/06/30 02:03:16;;;;;;;0.57;0.20;;;14.80;99.90;;;;;;4958730;28;20031;-82
2021/06/30 02:05:41;;;;;;;0.20;0.20;;;14.70;99.90;;;;;;4958646;28;20023;-82
2021/06/30 02:08:07;;;;;;;0.98;0.20;;;14.70;99.90;;;;;;4959081;28;20035;-82
2021/06/30 02:10:32;;;;;;;0.17;0.10;;;14.70;99.90;;;;;;4959140;28;20142;-82
2021/06/30 02:12:58;;;;;;;0.57;0.20;;;14.60;99.90;;;;;;4960982;28;20034;-81
2021/06/30 02:15:27;;;;;;;1.83;0.20;;;14.60;99.90;;;;;;4961662;28;20030;-81
2021/06/30 02:17:54;;;;;;;0.63;0.30;;;14.40;99.90;;;;;;4959881;28;20528;-82
2021/06/30 02:20:21;;;;;;;0.30;0.20;;;14.40;99.90;;;;;;4960654;28;20028;-82
2021/06/30 02:22:47;;;;;;;1.25;0.30;;;14.40;99.90;;;;;;4959944;28;20019;-81
2021/06/30 02:25:17;;;;;;;0.55;0.10;;;14.30;99.90;;;;;;4970536;28;20045;-82
2021/06/30 02:27:44;;;;;;;0.75;0.20;;;14.20;99.90;;;;;;4972764;28;20497;-82
2021/06/30 02:30:19;;;;;;;1.35;0.20;;;14.20;99.90;;;;;;4976682;28;20050;-82
2021/06/30 02:32:45;;;;;;;1.02;0.20;;;14.20;99.90;;;;;;4977219;28;20031;-82
2021/06/30 02:35:15;;;;;;;0.88;0.20;;;14.20;99.90;;;;;;4959746;28;20039;-82
2021/06/30 02:37:41;;;;;;;1.25;0.30;;;14.10;99.90;;;;;;4959169;28;20023;-82
2021/06/30 02:40:09;;;;;;;1.90;0.25;;;14.10;99.90;;;;;;4960632;28;20106;-81
2021/06/30 02:42:35;;;;;;;0.20;0.20;;;14.10;99.90;;;;;;4970126;28;20035;-82
2021/06/30 02:45:04;;;;;;;0.45;0.17;;;14.00;99.90;;;;;;4978568;28;20104;-83
2021/06/30 02:47:29;;;;;;;1.65;0.43;;;14.10;99.90;;;;;;4980782;28;20019;-83
2021/06/30 02:49:55;;;;;;;5.80;1.10;;;14.00;99.90;;;;;;4974972;28;20034;-81
2021/06/30 02:52:20;;;;;;;7.25;1.77;;;14.00;99.90;;;;;;4958416;28;20401;-80
2021/06/30 02:54:46;;;;;;;7.32;1.95;;;14.00;99.90;;;;;;4958465;28;20386;-83
2021/06/30 02:57:12;;;;;;;3.53;0.95;;;13.90;99.90;;;;;;4957647;28;20118;-83
2021/06/30 02:59:37;;;;;;;2.58;0.40;;;14.00;99.90;;;;;;4956906;28;20031;-82
2021/06/30 03:02:03;;;;;;;0.90;0.20;;;13.90;99.90;;;;;;4956803;28;20027;-80
2021/06/30 03:04:29;;;;;;;1.52;0.30;;;13.80;99.90;;;;;;4955500;28;20041;-81
2021/06/30 03:06:54;;;;;;;0.25;0.10;;;13.90;99.90;;;;;;4956496;28;20039;-81
2021/06/30 03:09:21;;;;;;;0.95;0.10;;;13.80;99.90;;;;;;4956193;28;20437;-82
2021/06/30 03:11:48;;;;;;;1.48;0.10;;;13.80;99.90;;;;;;4991927;23;20054;-85
2021/06/30 03:14:14;;;;;;;0.20;0.10;;;13.80;99.90;;;;;;5006647;28;20034;-86
2021/06/30 03:16:39;;;;;;;0.45;0.10;;;13.80;99.90;;;;;;4999434;28;20026;-86
2021/06/30 03:19:05;;;;;;;0.52;0.20;;;13.80;99.90;;;;;;4990549;28;20038;-86
2021/06/30 03:21:31;;;;;;;0.10;0.10;;;13.90;99.90;;;;;;4993071;28;20038;-87
2021/06/30 03:23:56;;;;;;;0.93;0.10;;;13.90;99.90;;;;;;4993396;28;20043;-86
2021/06/30 03:26:22;;;;;;;0.15;0.10;;;13.90;99.90;;;;;;4994586;28;20449;-86
2021/06/30 03:28:47;;;;;;;0.40;0.10;;;13.90;99.90;;;;;;4983889;28;20042;-86
2021/06/30 03:31:13;;;;;;;0.30;0.10;;;13.90;99.90;;;;;;4993869;28;20037;-86
2021/06/30 03:33:39;;;;;;;1.00;0.20;;;13.80;99.90;;;;;;4994124;28;20026;-87
2021/06/30 03:36:05;;;;;;;0.63;0.20;;;13.80;99.90;;;;;;4994792;28;20439;-86
2021/06/30 03:38:32;;;;;;;0.73;0.10;;;13.80;99.90;;;;;;4975863;28;20034;-86
2021/06/30 03:40:58;;;;;;;0.73;0.10;;;13.80;99.90;;;;;;4975022;28;20058;-87
2021/06/30 03:43:23;;;;;;;0.20;0.10;;;13.80;99.90;;;;;;4974551;28;20050;-86
2021/06/30 03:45:49;;;;;;;0.10;0.05;;;13.70;99.90;;;;;;4991021;28;20026;-87
2021/06/30 03:48:14;;;;;;;0.47;0.15;;;13.70;99.90;;;;;;4990097;28;20456;-86
2021/06/30 03:50:40;;;;;;;0.47;0.20;;;13.70;99.90;;;;;;4989944;28;20027;-86
2021/06/30 03:53:05;;;;;;;1.25;0.20;;;13.70;99.90;;;;;;4989990;28;20660;-86
2021/06/30 03:55:31;;;;;;;1.75;0.17;;;13.80;99.90;;;;;;4976484;28;20050;-87
2021/06/30 03:57:57;;;;;;;1.02;0.30;;;13.80;99.90;;;;;;4974499;28;20122;-85
2021/06/30 04:00:26;;;;;;;0.73;0.10;;;13.80;99.90;;;;;;4976673;28;20030;-85
2021/06/30 04:02:52;;;;;;;1.13;0.20;;;13.80;99.90;;;;;;4992897;28;20026;-86
2021/06/30 04:05:18;;;;;;;1.05;0.30;;;13.80;99.90;;;;;;4993839;28;20027;-86
2021/06/30 04:07:43;;;;;;;0.50;0.10;;;13.80;99.90;;;;;;4994839;28;20036;-87
2021/06/30 04:10:09;;;;;;;2.03;0.20;;;13.80;99.90;;;;;;4992047;28;20019;-86
2021/06/30 04:12:35;;;;;;;0.57;0.10;;;13.70;99.90;;;;;;5001007;28;20033;-86
2021/06/30 04:15:01;;;;;;;0.40;0.10;;;13.70;99.90;;;;;;4992965;28;20088;-86
2021/06/30 04:17:26;;;;;;;0.20;0.10;;;13.70;99.90;;;;;;4994938;28;20034;-86
2021/06/30 04:19:52;;;;;;;2.03;0.17;;;13.60;99.90;;;;;;4992483;28;20084;-87
2021/06/30 04:22:17;;;;;;;2.08;0.20;;;13.70;99.90;;;;;;4989494;28;20046;-86
2021/06/30 04:24:43;;;;;;;0.20;0.10;;;13.70;99.90;;;;;;4983226;28;20488;-87
2021/06/30 04:27:08;;;;;;;0.20;0.10;;;13.70;99.90;;;;;;4988087;28;20034;-86
2021/06/30 04:29:34;;;;;;;0.60;0.13;;;13.80;99.90;;;;;;4992783;28;20113;-86
2021/06/30 04:32:00;;;;;;;1.50;0.15;;;13.90;99.90;;;;;;4992630;28;20027;-86
2021/06/30 04:34:26;;;;;;;1.55;0.20;;;13.80;99.90;;;;;;4993376;28;20511;-87
2021/06/30 04:36:51;;;;;;;0.70;0.30;;;13.90;99.90;;;;;;4993453;28;20077;-86
2021/06/30 04:39:19;;;;;;;0.15;0.10;;;13.70;99.90;;;;;;4990499;28;20106;-87
2021/06/30 04:41:46;;;;;;;1.50;0.15;;;13.80;99.90;;;;;;4992769;28;20117;-87
2021/06/30 04:44:12;;;;;;;0.35;0.13;;;13.90;99.90;;;;;;4995858;28;20038;-88
2021/06/30 04:46:38;;;;;;;3.78;0.30;;;14.00;99.90;;;;;;4995450;28;20018;-88
2021/06/30 04:49:06;;;;;;;2.92;0.20;;;14.10;99.90;;;;;;4991911;28;20045;-89
2021/06/30 04:51:34;;;;;;;0.55;0.10;;;14.30;99.90;;;;;;4995284;28;20027;-87
2021/06/30 04:54:00;;;;;;;0.65;0.20;;;14.30;99.90;;;;;;4994772;28;20027;-88
2021/06/30 04:56:29;;;;;;;0.80;0.20;;;14.30;99.90;;;;;;4997202;28;20543;-88
2021/06/30 04:59:07;;;;;;;1.58;0.10;;;14.30;99.90;;;;;;4998080;28;20022;-88
2021/06/30 05:01:32;;;;;;;0.30;0.20;;;14.30;99.90;;;;;;5002399;28;20365;-88
2021/06/30 05:03:58;;;;;;;0.90;0.20;;;14.70;99.90;;;;;;4999430;28;20041;-88
2021/06/30 05:06:24;;;;;;;0.45;0.20;;;14.50;99.90;;;;;;4999870;28;20038;-88
2021/06/30 05:08:52;;;;;;;2.60;0.10;;;14.50;99.90;;;;;;5004741;28;20026;-88
2021/06/30 05:11:18;;;;;;;0.60;0.15;;;14.50;99.90;;;;;;5001852;28;20034;-89
2021/06/30 05:13:44;;;;;;;0.50;0.20;;;14.40;99.90;;;;;;4998209;28;20532;-89
2021/06/30 05:16:10;;;;;;;0.20;0.10;;;14.40;99.90;;;;;;4997691;28;20018;-89
2021/06/30 05:18:36;;;;;;;1.85;0.40;;;14.40;99.90;;;;;;4994753;28;20038;-88
2021/06/30 05:21:02;;;;;;;1.98;0.30;;;14.30;99.90;;;;;;4993369;28;20053;-89
2021/06/30 05:23:30;;;;;;;6.03;1.75;;;14.40;99.90;;;;;;4991891;28;20022;-89
2021/06/30 05:25:56;;;;;;;4.65;0.68;;;14.40;99.90;;;;;;4991653;28;20566;-89
2021/06/30 05:28:25;;;;;;;1.48;0.40;;;14.60;99.90;;;;;;5001784;28;20029;-88
2021/06/30 05:30:51;;;;;;;0.75;0.20;;;14.30;99.90;;;;;;4987450;28;20018;-88
2021/06/30 05:33:17;;;;;;;1.30;0.30;;;14.20;99.90;;;;;;4990995;28;20036;-87
2021/06/30 05:35:42;;;;;;;0.38;0.20;;;14.30;99.90;;;;;;4986107;28;20038;-88
2021/06/30 05:38:08;;;;;;;0.30;0.20;;;14.20;99.90;;;;;;4994868;28;20492;-87
2021/06/30 05:40:33;;;;;;;0.15;0.10;;;14.10;99.90;;;;;;5001491;28;20189;-88
2021/06/30 05:42:59;;;;;;;0.85;0.30;;;14.20;99.90;;;;;;4994884;28;20130;-87
2021/06/30 05:45:25;;;;;;;2.38;0.75;;;14.30;99.90;;;;;;4970112;28;20082;-86
2021/06/30 05:47:51;;;;;;;0.85;0.20;;;14.10;99.90;;;;;;4984411;28;20031;-86
2021/06/30 05:50:20;;;;;;;0.52;0.20;;;14.20;99.90;;;;;;4972347;28;20070;-87
2021/06/30 05:52:46;;;;;;;0.77;0.30;;;14.30;99.90;;;;;;4987621;28;20109;-86
2021/06/30 05:55:12;;;;;;;0.63;0.13;;;14.40;99.90;;;;;;5000549;28;20396;-86
2021/06/30 05:57:38;;;;;;;0.68;0.30;;;14.50;99.90;;;;;;5003196;28;20057;-85
2021/06/30 06:00:13;;;;;;;1.88;0.20;;;14.60;99.90;;;;;;5001974;28;20091;-86
2021/06/30 06:02:39;;;;;;;1.15;0.50;;;14.60;99.90;;;;;;4993326;28;20512;-87
2021/06/30 06:05:05;;;;;;;0.95;0.20;;;14.50;99.90;;;;;;4992323;28;20022;-86
2021/06/30 06:07:32;;;;;;;1.85;0.30;;;14.40;99.90;;;;;;4992529;28;20018;-87
2021/06/30 06:09:58;;;;;;;0.68;0.20;;;14.30;99.90;;;;;;4991153;28;20170;-87
2021/06/30 06:12:27;;;;;;;1.10;0.30;;;14.50;99.90;;;;;;4992120;28;20034;-86
2021/06/30 06:14:53;;;;;;;0.50;0.20;;;14.80;99.90;;;;;;4993442;28;20116;-88
2021/06/30 06:17:19;;;;;;;1.25;0.20;;;15.20;99.90;;;;;;4993590;28;20030;-88
2021/06/30 06:19:45;;;;;;;0.40;0.20;;;15.40;99.90;;;;;;4987381;28;20038;-87
2021/06/30 06:22:10;;;;;;;0.32;0.10;;;15.60;99.90;;;;;;4988652;28;20027;-87
2021/06/30 06:24:36;;;;;;;0.80;0.20;;;15.40;99.90;;;;;;4981915;28;20026;-86
2021/06/30 06:27:03;;;;;;;0.50;0.10;;;15.60;99.90;;;;;;4993237;28;20396;-86
2021/06/30 06:29:28;;;;;;;0.20;0.10;;;15.50;99.90;;;;;;4973721;28;20027;-87
2021/06/30 06:31:54;;;;;;;0.68;0.10;;;15.50;99.90;;;;;;4972369;28;20117;-86
2021/06/30 06:34:21;;;;;;;0.20;0.10;;;15.50;99.90;;;;;;4972254;28;20042;-88
2021/06/30 06:36:50;;;;;;;1.27;0.10;;;15.60;99.90;;;;;;4989894;28;20130;-87
2021/06/30 06:39:20;;;;;;;0.10;0.10;;;15.70;99.90;;;;;;4987713;28;20029;-88
2021/06/30 06:41:47;;;;;;;0.50;0.20;;;15.70;99.90;;;;;;4972407;28;20062;-87
2021/06/30 06:44:13;;;;;;;0.55;0.10;;;15.80;99.90;;;;;;4972187;28;20643;-88
2021/06/30 06:46:39;;;;;;;0.63;0.20;;;15.70;99.90;;;;;;4973689;28;20030;-87
2021/06/30 06:49:08;;;;;;;0.25;0.10;;;15.70;99.90;;;;;;4971737;28;20050;-87
2021/06/30 06:51:36;;;;;;;0.20;0.17;;;15.60;99.90;;;;;;4971923;28;20023;-87
2021/06/30 06:54:02;;;;;;;0.60;0.20;;;15.80;99.90;;;;;;4971995;28;20046;-88
2021/06/30 06:56:28;;;;;;;0.13;0.10;;;15.90;99.90;;;;;;4971936;28;20039;-87
2021/06/30 06:58:54;;;;;;;0.55;0.10;;;15.90;99.90;;;;;;4978653;28;20165;-86
2021/06/30 07:01:21;;;;;;;0.45;0.10;;;16.10;99.90;;;;;;4991117;28;20026;-86
2021/06/30 07:03:47;;;;;;;0.60;0.20;;;16.40;99.90;;;;;;4991096;28;20033;-86
2021/06/30 07:06:13;;;;;;;0.65;0.15;;;16.70;99.90;;;;;;4992384;28;20053;-86
2021/06/30 07:08:38;;;;;;;0.45;0.20;;;16.70;99.90;;;;;;4990068;28;20030;-86
2021/06/30 07:11:04;;;;;;;0.25;0.10;;;16.70;99.90;;;;;;4990628;28;20022;-86
2021/06/30 07:13:30;;;;;;;0.43;0.13;;;16.70;99.90;;;;;;4991003;28;20026;-86
2021/06/30 07:15:55;;;;;;;1.55;0.20;;;16.90;99.90;;;;;;4988817;28;20102;-86
2021/06/30 07:18:21;;;;;;;0.10;0.00;;;16.80;99.90;;;;;;4971440;28;20489;-87
2021/06/30 07:20:47;;;;;;;0.70;0.10;;;16.90;99.90;;;;;;4972264;28;20026;-86
2021/06/30 07:23:13;;;;;;;0.70;0.20;;;17.00;99.90;;;;;;4971290;28;20089;-86
2021/06/30 07:25:40;;;;;;;0.20;0.08;;;17.00;99.90;;;;;;4983970;28;20027;-87
2021/06/30 07:28:06;;;;;;;0.45;0.00;;;17.00;99.90;;;;;;4972731;28;20038;-87
2021/06/30 07:30:41;;;;;;;0.50;0.10;;;17.10;99.90;;;;;;4971815;28;20174;-86
2021/06/30 07:33:07;;;;;;;0.50;0.10;;;17.40;99.90;;;;;;4971303;28;20027;-86
2021/06/30 07:35:33;;;;;;;1.85;0.13;;;17.20;99.90;;;;;;4984585;28;20034;-86
2021/06/30 07:37:58;;;;;;;1.95;0.30;;;17.40;99.90;;;;;;4972471;28;20023;-86
2021/06/30 07:40:24;;;;;;;0.57;0.20;;;17.40;99.90;;;;;;4971889;28;20463;-86
2021/06/30 07:42:49;;;;;;;0.20;0.10;;;17.70;99.90;;;;;;4987052;28;20033;-86
2021/06/30 07:45:15;;;;;;;0.65;0.08;;;18.00;99.90;;;;;;4971087;28;20072;-86
2021/06/30 07:47:41;;;;;;;0.35;0.10;;;18.20;99.90;;;;;;4970925;28;20026;-86
2021/06/30 07:50:07;;;;;;;0.10;0.00;;;18.10;99.90;;;;;;4971647;28;20069;-86
2021/06/30 07:52:33;;;;;;;0.05;0.03;;;18.30;99.90;;;;;;4976960;28;20034;-86
2021/06/30 07:55:00;;;;;;;1.88;0.10;;;18.60;99.90;;;;;;4986969;28;20026;-87
2021/06/30 07:57:25;;;;;;;0.85;0.03;;;18.80;99.90;;;;;;4987340;28;20146;-87
2021/06/30 07:59:51;;;;;;;0.28;0.05;;;18.70;99.90;;;;;;4985583;28;20046;-86
2021/06/30 08:02:16;;;;;;;0.98;0.10;;;18.40;99.90;;;;;;4972192;28;20039;-85
2021/06/30 08:04:42;;;;;;;0.22;0.03;;;18.30;99.90;;;;;;4970945;28;20143;-87
2021/06/30 08:07:08;;;;;;;0.35;0.10;;;18.30;99.90;;;;;;4970826;28;20023;-87
2021/06/30 08:09:35;;;;;;;0.55;0.15;;;18.00;99.90;;;;;;4974011;28;20029;-86
2021/06/30 08:12:05;;;;;;;2.55;0.50;;;17.70;99.90;;;;;;4972152;28;20130;-85
2021/06/30 08:14:31;;;;;;;5.30;0.82;;;17.80;99.90;;;;;;4971143;28;20400;-85
2021/06/30 08:16:57;;;;;;;1.17;0.20;;;17.50;99.90;;;;;;4970721;28;20027;-85
2021/06/30 08:19:23;;;;;;;0.85;0.20;;;17.50;99.90;;;;;;4970319;28;20123;-85
2021/06/30 08:21:49;;;;;;;0.52;0.10;;;16.90;99.90;;;;;;4970781;28;20022;-86
2021/06/30 08:24:14;;;;;;;0.93;0.10;;;17.00;99.90;;;;;;4977424;28;20098;-86
2021/06/30 08:26:40;;;;;;;0.82;0.00;;;17.10;99.90;;;;;;4989690;28;20050;-85
2021/06/30 08:29:06;;;;;;;0.13;0.00;;;17.10;99.90;;;;;;4969986;28;20110;-86
2021/06/30 08:31:32;;;;;;;0.35;0.00;;;17.30;99.90;;;;;;4970711;28;20555;-86
2021/06/30 08:33:58;;;;;;;0.10;0.03;;;17.60;99.90;;;;;;4970809;28;20054;-86
2021/06/30 08:36:23;;;;;;;0.10;0.10;;;17.80;99.90;;;;;;4970717;28;20038;-85
2021/06/30 08:38:49;;;;;;;0.52;0.00;;;17.80;99.90;;;;;;4970272;28;20023;-86
2021/06/30 08:41:17;;;;;;;0.75;0.20;;;17.70;99.90;;;;;;4970474;28;20023;-86
2021/06/30 08:43:43;;;;;;;0.30;0.00;;;17.70;99.90;;;;;;4974448;28;20500;-86
2021/06/30 08:46:09;;;;;;;0.10;0.00;;;17.90;99.90;;;;;;4974315;28;20023;-86
2021/06/30 08:48:37;;;;;;;0.40;0.10;;;18.40;99.90;;;;;;4974061;28;20077;-87
2021/06/30 08:51:03;;;;;;;1.13;0.10;;;18.60;99.90;;;;;;4974054;28;20019;-86
2021/06/30 08:53:31;;;;;;;1.27;0.10;;;18.60;99.90;;;;;;4975765;28;20027;-86
2021/06/30 08:55:57;;;;;;;0.20;0.10;;;18.70;99.90;;;;;;4974286;28;20432;-86
2021/06/30 08:58:22;;;;;;;0.08;0.05;;;18.60;99.90;;;;;;4974098;28;20097;-85
2021/06/30 09:00:48;;;;;;;2.17;0.15;;;18.60;99.90;;;;;;4973685;28;20027;-86
2021/06/30 09:03:18;;;;;;;0.10;0.00;;;19.00;99.90;;;;;;4990276;28;20030;-86
2021/06/30 09:08:21;;;;;;;1.45;0.10;;;19.30;99.90;;;;;;4975277;28;20381;-85
2021/06/30 09:10:47;;;;;;;0.40;0.03;;;19.60;99.90;;;;;;4986256;28;20037;-86
2021/06/30 09:13:21;;;;;;;0.20;0.10;;;19.80;99.90;;;;;;4990000;28;20029;-86
2021/06/30 09:15:59;;;;;;;1.08;0.10;;;19.70;99.90;;;;;;4990163;28;20033;-86
2021/06/30 09:18:29;;;;;;;0.38;0.10;;;19.30;99.90;;;;;;5005421;23;20199;-83
2021/06/30 09:21:14;;;;;;;0.15;0.05;;;18.90;99.90;;;;;;4987187;28;20050;-82
2021/06/30 09:24:04;;;;;;;0.13;0.00;;;18.40;99.90;;;;;;4998575;28;20109;-83
2021/06/30 09:26:32;;;;;;;1.00;0.20;;;18.40;99.90;;;;;;4998459;28;20503;-83
2021/06/30 09:29:07;;;;;;;0.20;0.00;;;18.40;99.90;;;;;;4984585;28;20113;-83
2021/06/30 09:31:34;;;;;;;0.63;0.25;;;18.30;99.90;;;;;;4979717;28;20128;-83
2021/06/30 09:34:00;;;;;;;0.00;0.00;;;18.10;99.90;;;;;;4978612;28;20038;-83
2021/06/30 09:36:33;;;;;;;1.05;0.10;;;17.90;99.90;;;;;;4992103;28;20039;-83
2021/06/30 09:39:10;;;;;;;0.10;0.00;;;18.20;99.90;;;;;;4997550;28;20025;-83
2021/06/30 09:41:44;;;;;;;0.35;0.20;;;18.60;99.90;;;;;;4993244;28;20031;-82
2021/06/30 09:44:13;;;;;;;0.10;0.10;;;18.50;99.90;;;;;;4978952;28;20034;-83
2021/06/30 09:46:41;;;;;;;0.95;0.10;;;18.50;99.90;;;;;;4994370;28;20022;-83
2021/06/30 09:49:09;;;;;;;0.15;0.10;;;18.50;99.90;;;;;;4977184;28;20038;-83
2021/06/30 09:51:36;;;;;;;0.55;0.10;;;18.60;99.90;;;;;;4978557;28;20073;-83
2021/06/30 09:54:11;;;;;;;0.25;0.10;;;18.40;99.90;;;;;;4995267;28;20026;-82
2021/06/30 09:56:38;;;;;;;0.20;0.00;;;18.40;99.90;;;;;;4993336;28;20039;-82
2021/06/30 09:59:25;;;;;;;0.22;0.10;;;18.10;99.90;;;;;;4976761;28;20026;-82
2021/06/30 10:01:54;;;;;;;1.65;0.10;;;18.00;99.90;;;;;;4978902;28;20461;-83
2021/06/30 10:04:35;;;;;;;0.70;0.10;;;18.10;99.90;;;;;;4978230;28;20502;-83
2021/06/30 10:07:04;;;;;;;0.90;0.10;;;17.90;99.90;;;;;;4979150;28;20030;-83
2021/06/30 10:09:29;;;;;;;0.20;0.00;;;17.70;99.90;;;;;;4978143;28;20042;-83
2021/06/30 10:12:23;;;;;;;0.30;0.17;;;17.90;99.90;;;;;;4981407;28;20018;-83
2021/06/30 10:14:50;;;;;;;0.20;0.08;;;18.40;99.90;;;;;;4981148;28;20035;-83
2021/06/30 10:17:16;;;;;;;0.22;0.00;;;19.00;99.90;;;;;;4981350;28;20035;-81
2021/06/30 10:19:43;;;;;;;0.10;0.00;;;19.20;99.90;;;;;;4995924;28;20057;-83
2021/06/30 10:22:11;;;;;;;0.20;0.08;;;19.60;99.90;;;;;;4977692;28;20030;-82
2021/06/30 10:24:38;;;;;;;1.65;0.08;;;20.00;99.90;;;;;;4996197;28;20113;-82
2021/06/30 10:27:06;;;;;;;0.10;0.00;;;20.20;99.90;;;;;;4997858;28;20562;-83
2021/06/30 10:29:34;;;;;;;0.17;0.05;;;20.50;99.90;;;;;;4996981;28;20101;-83
2021/06/30 10:32:08;;;;;;;0.10;0.08;;;20.20;99.90;;;;;;4979691;28;20031;-82
2021/06/30 10:34:44;;;;;;;0.45;0.10;;;20.10;99.90;;;;;;4977924;28;20078;-82
2021/06/30 10:37:36;;;;;;;0.55;0.00;;;19.70;99.90;;;;;;4981055;28;20440;-82
2021/06/30 10:40:12;;;;;;;;;;;19.50;99.90;;;;;;4980654;28;20074;-81
2021/06/30 10:42:47;;;;;;;1.85;0.10;;;19.40;99.90;;;;;;4980491;28;19968;-82
2021/06/30 10:45:13;;;;;;;0.10;0.10;;;19.30;99.90;;;;;;4980878;28;20019;-82
2021/06/30 10:47:46;;;;;;;0.20;0.03;;;19.10;99.90;;;;;;4979184;28;20023;-83
2021/06/30 10:50:22;;;;;;;0.52;0.10;;;19.60;99.90;;;;;;4976890;28;20046;-83
2021/06/30 10:52:53;;;;;;;0.30;0.10;;;19.80;99.90;;;;;;4977581;28;20023;-81
2021/06/30 10:55:35;;;;;;;0.30;0.10;;;20.40;99.90;;;;;;4977270;28;20081;-81
2021/06/30 10:58:19;;;;;;;0.10;0.08;;;20.30;99.90;;;;;;4977255;28;20057;-82
2021/06/30 11:00:48;;;;;;;0.10;0.10;;;20.20;99.90;;;;;;4974854;28;20030;-81
2021/06/30 11:03:45;;;;;;;0.15;0.00;;;19.90;99.90;;;;;;4975136;28;20054;-83
2021/06/30 11:06:14;;;;;;;0.68;0.10;;;19.60;99.90;;;;;;4973789;28;20123;-82
2021/06/30 11:09:08;;;;;;;2.83;0.28;;;19.40;99.90;;;;;;4974130;28;20126;-82
2021/06/30 11:11:34;;;;;;;0.10;0.05;;;19.10;99.90;;;;;;4962307;28;20070;-82
2021/06/30 11:14:06;;;;;;;0.30;0.10;;;18.80;99.90;;;;;;4975712;28;20030;-82
2021/06/30 11:16:37;;;;;;;0.15;0.10;;;18.90;99.90;;;;;;4975929;28;20034;-81
2021/06/30 11:19:26;;;;;;;;;;;18.90;99.90;;;;;;4975872;28;20178;-84
2021/06/30 11:21:58;;;;;;;0.30;0.10;;;18.70;99.90;;;;;;4969918;28;19965;-82
2021/06/30 11:24:43;;;;;;;0.28;0.10;;;18.60;99.90;;;;;;4984135;28;20022;-83
2021/06/30 11:29:58;;;;;;;0.25;0.20;;;18.00;99.90;;;;;;4986313;28;20540;-83
2021/06/30 11:32:36;;;;;;;0.20;0.10;;;18.30;99.90;;;;;;4977861;28;20037;-82
2021/06/30 11:35:11;;;;;;;0.95;0.30;;;18.90;99.90;;;;;;4977885;28;20119;-83
2021/06/30 11:37:46;;;;;;;0.88;0.20;;;19.70;99.90;;;;;;4978923;28;20276;-83
2021/06/30 11:40:18;;;;;;;0.20;0.10;;;20.60;99.90;;;;;;4981042;28;20027;-83
2021/06/30 11:42:49;;;;;;;0.43;0.20;;;21.30;99.90;;;;;;4993875;28;20035;-83
2021/06/30 11:45:22;;;;;;;0.00;0.00;;;20.80;99.90;;;;;;4976581;28;20027;-83
2021/06/30 11:47:53;;;;;;;0.20;0.10;;;20.20;99.90;;;;;;4991907;28;20027;-83
2021/06/30 11:50:21;;;;;;;0.10;0.10;;;20.00;99.90;;;;;;4976483;28;20042;-81
2021/06/30 11:52:48;;;;;;;1.23;0.20;;;19.40;99.90;;;;;;4975390;28;20095;-82
2021/06/30 11:55:14;;;;;;;0.50;0.10;;;19.10;99.90;;;;;;4977652;28;20062;-83
2021/06/30 11:57:58;;;;;;;1.95;0.10;;;18.80;99.90;;;;;;4977891;28;20054;-83
2021/06/30 12:00:26;;;;;;;1.55;0.20;;;18.30;99.90;;;;;;4976869;28;20114;-84
2021/06/30 12:02:54;;;;;;;1.08;0.15;;;17.90;99.90;;;;;;4999703;28;20326;-83
2021/06/30 12:05:23;;;;;;;0.30;0.10;;;17.80;99.90;;;;;;5003936;28;20042;-83
2021/06/30 12:07:50;;;;;;;0.45;0.10;;;17.70;99.90;;;;;;5001079;28;20033;-83
2021/06/30 12:10:16;;;;;;;0.40;0.10;;;17.90;99.90;;;;;;4999933;28;20046;-83
2021/06/30 12:12:42;;;;;;;0.22;0.10;;;18.00;99.90;;;;;;4998660;28;20017;-83
2021/06/30 12:15:10;;;;;;;0.25;0.05;;;18.20;99.90;;;;;;4997345;28;20052;-83
2021/06/30 12:17:35;;;;;;;1.83;0.10;;;18.50;99.90;;;;;;5007010;28;20169;-84
2021/06/30 12:20:04;;;;;;;0.28;0.00;;;18.30;99.90;;;;;;5007134;28;20492;-84
2021/06/30 12:22:35;;;;;;;0.30;0.10;;;18.60;99.90;;;;;;5004331;28;20021;-84
2021/06/30 12:25:06;;;;;;;0.17;0.10;;;18.90;99.90;;;;;;5002572;28;20026;-83
2021/06/30 12:27:43;;;;;;;0.40;0.10;;;19.40;99.90;;;;;;5005938;28;20105;-84
2021/06/30 12:30:12;;;;;;;0.82;0.20;;;20.10;99.90;;;;;;5005983;28;20023;-83
2021/06/30 12:32:45;;;;;;;1.35;0.10;;;20.30;99.90;;;;;;5005494;28;20079;-84
2021/06/30 12:35:13;;;;;;;2.63;0.20;;;20.20;99.90;;;;;;5003869;28;20052;-84
2021/06/30 12:37:40;;;;;;;0.20;0.10;;;20.20;99.90;;;;;;5003719;28;20361;-83
2021/06/30 12:40:10;;;;;;;1.88;0.20;;;20.10;99.90;;;;;;5003442;28;20038;-82
2021/06/30 12:42:53;;;;;;;0.60;0.10;;;19.90;99.90;;;;;;5003330;28;20057;-83
2021/06/30 12:45:22;;;;;;;0.57;0.20;;;19.60;99.90;;;;;;5004381;28;20135;-83
2021/06/30 12:47:57;;;;;;;0.45;0.28;;;19.60;99.90;;;;;;5002485;28;20498;-83
2021/06/30 12:50:41;;;;;;;2.45;0.30;;;19.40;99.90;;;;;;5002542;28;20018;-85
2021/06/30 12:53:12;;;;;;;1.80;0.25;;;19.20;99.90;;;;;;5007434;28;20018;-82
2021/06/30 12:55:50;;;;;;;0.55;0.20;;;19.30;99.90;;;;;;5011105;28;20269;-83
2021/06/30 12:58:16;;;;;;;0.17;0.10;;;20.00;99.90;;;;;;5001927;28;20022;-81